sensor_id;sensor_type;location;lat;lon;timestamp;temperature;humidity
12957;DHT22;6543;48.836;10.092;2022-07-10T00:00:26;15.30;99.90
12957;DHT22;6543;48.836;10.092;2022-07-10T00:02:54;15.20;99.90
12957;DHT22;6543;48.836;10.092;2022-07-10T00:05:22;15.20;99.90
12957;DHT22;6543;48.836;10.092;2022-07-10T00:07:50;15.00;99.90
12957;DHT22;6543;48.836;10.092;2022-07-10T00:10:17;15.00;99.90
12957;DHT22;6543;48.836;10.092;2022-07-10T00:12:44;15.00;99.90
12957;DHT22;6543;48.836;10.092;2022-07-10T00:15:12;15.00;99.90
12957;DHT22;6543;48.836;10.092;2022-07-10T00:17:40;15.00;99.90
12957;DHT22;6543;48.836;10.092;2022-07-10T00:20:10;15.00;99.90
12957;DHT22;6543;48.836;10.092;2022-07-10T00:22:38;14.90;99.90
12957;DHT22;6543;48.836;10.092;2022-07-10T00:25:07;14.90;99.90
12957;DHT22;6543;48.836;10.092;2022-07-10T00:27:34;14.80;99.90
12957;DHT22;6543;48.836;10.092;2022-07-10T00:30:01;14.80;99.90
12957;DHT22;6543;48.836;10.092;2022-07-10T00:32:28;14.80;99.90
12957;DHT22;6543;48.836;10.092;2022-07-10T00:34:55;14.80;99.90
12957;DHT22;6543;48.836;10.092;2022-07-10T00:37:23;14.80;99.90
12957;DHT22;6543;48.836;10.092;2022-07-10T00:39:50;14.70;99.90
12957;DHT22;6543;48.836;10.092;2022-07-10T00:42:17;14.50;99.90
12957;DHT22;6543;48.836;10.092;2022-07-10T00:44:44;14.40;99.90
12957;DHT22;6543;48.836;10.092;2022-07-10T00:47:11;14.50;99.90
12957;DHT22;6543;48.836;10.092;2022-07-10T00:49:39;14.60;99.90
12957;DHT22;6543;48.836;10.092;2022-07-10T00:52:08;14.50;99.90
12957;DHT22;6543;48.836;10.092;2022-07-10T00:54:38;14.40;99.90
12957;DHT22;6543;48.836;10.092;2022-07-10T00:57:07;14.30;99.90
12957;DHT22;6543;48.836;10.092;2022-07-10T00:59:34;14.40;99.90
12957;DHT22;6543;48.836;10.092;2022-07-10T01:02:02;14.30;99.90
12957;DHT22;6543;48.836;10.092;2022-07-10T01:04:31;14.20;99.90
12957;DHT22;6543;48.836;10.092;2022-07-10T01:06:58;14.10;99.90
12957;DHT22;6543;48.836;10.092;2022-07-10T01:09:25;14.10;99.90
12957;DHT22;6543;48.836;10.092;2022-07-10T01:11:55;14.10;99.90
12957;DHT22;6543;48.836;10.092;2022-07-10T01:14:22;14.00;99.90
12957;DHT22;6543;48.836;10.092;2022-07-10T01:16:50;14.00;99.90
12957;DHT22;6543;48.836;10.092;2022-07-10T01:19:18;14.00;99.90
12957;DHT22;6543;48.836;10.092;2022-07-10T01:21:47;14.00;99.90
12957;DHT22;6543;48.836;10.092;2022-07-10T01:24:14;13.90;99.90
12957;DHT22;6543;48.836;10.092;2022-07-10T01:26:41;13.80;99.90
12957;DHT22;6543;48.836;10.092;2022-07-10T01:29:10;13.80;99.90
12957;DHT22;6543;48.836;10.092;2022-07-10T01:31:37;13.70;99.90
12957;DHT22;6543;48.836;10.092;2022-07-10T01:34:06;13.60;99.90
12957;DHT22;6543;48.836;10.092;2022-07-10T01:36:34;13.60;99.90
12957;DHT22;6543;48.836;10.092;2022-07-10T01:39:03;13.60;99.90
12957;DHT22;6543;48.836;10.092;2022-07-10T01:41:30;13.70;99.90
12957;DHT22;6543;48.836;10.092;2022-07-10T01:43:57;13.70;99.90
12957;DHT22;6543;48.836;10.092;2022-07-10T01:46:25;13.70;99.90
12957;DHT22;6543;48.836;10.092;2022-07-10T01:48:52;13.80;99.90
12957;DHT22;6543;48.836;10.092;2022-07-10T01:51:19;13.80;99.90
12957;DHT22;6543;48.836;10.092;2022-07-10T01:53:46;13.80;99.90
12957;DHT22;6543;48.836;10.092;2022-07-10T01:56:15;13.80;99.90
12957;DHT22;6543;48.836;10.092;2022-07-10T01:58:42;13.90;99.90
12957;DHT22;6543;48.836;10.092;2022-07-10T02:01:10;13.90;99.90
12957;DHT22;6543;48.836;10.092;2022-07-10T02:03:37;14.00;99.90
12957;DHT22;6543;48.836;10.092;2022-07-10T02:06:21;14.00;99.90
12957;DHT22;6543;48.836;10.092;2022-07-10T02:08:48;14.10;99.90
12957;DHT22;6543;48.836;10.092;2022-07-10T02:11:17;14.10;99.90
12957;DHT22;6543;48.836;10.092;2022-07-10T02:13:44;14.10;99.90
12957;DHT22;6543;48.836;10.092;2022-07-10T02:16:11;14.10;99.90
12957;DHT22;6543;48.836;10.092;2022-07-10T02:18:38;14.10;99.90
12957;DHT22;6543;48.836;10.092;2022-07-10T02:21:06;14.10;99.90
12957;DHT22;6543;48.836;10.092;2022-07-10T02:23:33;14.20;99.90
12957;DHT22;6543;48.836;10.092;2022-07-10T02:26:00;14.10;99.90
12957;DHT22;6543;48.836;10.092;2022-07-10T02:28:29;14.10;99.90
12957;DHT22;6543;48.836;10.092;2022-07-10T02:30:56;14.10;99.90
12957;DHT22;6543;48.836;10.092;2022-07-10T02:33:22;14.20;99.90
12957;DHT22;6543;48.836;10.092;2022-07-10T02:35:49;14.20;99.90
12957;DHT22;6543;48.836;10.092;2022-07-10T02:38:16;14.20;99.90
12957;DHT22;6543;48.836;10.092;2022-07-10T02:40:43;14.10;99.90
12957;DHT22;6543;48.836;10.092;2022-07-10T02:43:10;14.20;99.90
12957;DHT22;6543;48.836;10.092;2022-07-10T02:45:38;14.20;99.90
12957;DHT22;6543;48.836;10.092;2022-07-10T02:48:05;14.20;99.90
12957;DHT22;6543;48.836;10.092;2022-07-10T02:50:32;14.10;99.90
12957;DHT22;6543;48.836;10.092;2022-07-10T02:52:59;14.10;99.90
12957;DHT22;6543;48.836;10.092;2022-07-10T02:55:26;14.00;99.90
12957;DHT22;6543;48.836;10.092;2022-07-10T02:57:53;14.10;99.90
12957;DHT22;6543;48.836;10.092;2022-07-10T03:00:20;14.10;99.90
12957;DHT22;6543;48.836;10.092;2022-07-10T03:02:48;14.10;99.90
12957;DHT22;6543;48.836;10.092;2022-07-10T03:05:16;14.10;99.90
12957;DHT22;6543;48.836;10.092;2022-07-10T03:07:43;14.00;99.90
12957;DHT22;6543;48.836;10.092;2022-07-10T03:10:10;14.00;99.90
12957;DHT22;6543;48.836;10.092;2022-07-10T03:12:37;14.00;99.90
12957;DHT22;6543;48.836;10.092;2022-07-10T03:15:05;13.90;99.90
12957;DHT22;6543;48.836;10.092;2022-07-10T03:17:32;13.90;99.90
12957;DHT22;6543;48.836;10.092;2022-07-10T03:20:00;13.90;99.90
12957;DHT22;6543;48.836;10.092;2022-07-10T03:22:27;13.90;99.90
12957;DHT22;6543;48.836;10.092;2022-07-10T03:24:56;13.90;99.90
12957;DHT22;6543;48.836;10.092;2022-07-10T03:27:23;13.90;99.90
12957;DHT22;6543;48.836;10.092;2022-07-10T03:29:50;13.90;99.90
12957;DHT22;6543;48.836;10.092;2022-07-10T03:32:16;13.90;99.90
12957;DHT22;6543;48.836;10.092;2022-07-10T03:34:43;13.90;99.90
12957;DHT22;6543;48.836;10.092;2022-07-10T03:37:11;13.90;99.90
12957;DHT22;6543;48.836;10.092;2022-07-10T03:39:38;13.80;99.90
12957;DHT22;6543;48.836;10.092;2022-07-10T03:42:06;13.90;99.90
12957;DHT22;6543;48.836;10.092;2022-07-10T03:44:33;13.90;99.90
12957;DHT22;6543;48.836;10.092;2022-07-10T03:46:59;13.80;99.90
12957;DHT22;6543;48.836;10.092;2022-07-10T03:49:26;13.80;99.90
12957;DHT22;6543;48.836;10.092;2022-07-10T03:51:53;13.80;99.90
12957;DHT22;6543;48.836;10.092;2022-07-10T03:54:21;13.80;99.90
12957;DHT22;6543;48.836;10.092;2022-07-10T03:56:49;13.70;99.90
12957;DHT22;6543;48.836;10.092;2022-07-10T03:59:33;13.70;99.90
12957;DHT22;6543;48.836;10.092;2022-07-10T04:02:00;13.70;99.90
12957;DHT22;6543;48.836;10.092;2022-07-10T04:04:27;13.70;99.90
12957;DHT22;6543;48.836;10.092;2022-07-10T04:06:54;13.70;99.90
12957;DHT22;6543;48.836;10.092;2022-07-10T04:09:22;13.70;99.90
12957;DHT22;6543;48.836;10.092;2022-07-10T04:11:49;13.80;99.90
12957;DHT22;6543;48.836;10.092;2022-07-10T04:14:16;13.80;99.90
12957;DHT22;6543;48.836;10.092;2022-07-10T04:16:43;13.70;99.90
12957;DHT22;6543;48.836;10.092;2022-07-10T04:19:10;13.70;99.90
12957;DHT22;6543;48.836;10.092;2022-07-10T04:21:37;13.70;99.90
12957;DHT22;6543;48.836;10.092;2022-07-10T04:24:04;13.80;99.90
12957;DHT22;6543;48.836;10.092;2022-07-10T04:26:32;13.80;99.90
12957;DHT22;6543;48.836;10.092;2022-07-10T04:28:59;13.80;99.90
12957;DHT22;6543;48.836;10.092;2022-07-10T04:31:26;13.80;99.90
12957;DHT22;6543;48.836;10.092;2022-07-10T04:33:53;13.90;99.90
12957;DHT22;6543;48.836;10.092;2022-07-10T04:36:22;13.90;99.90
12957;DHT22;6543;48.836;10.092;2022-07-10T04:38:49;13.90;99.90
12957;DHT22;6543;48.836;10.092;2022-07-10T04:41:16;13.90;99.90
12957;DHT22;6543;48.836;10.092;2022-07-10T04:43:45;14.00;99.90
12957;DHT22;6543;48.836;10.092;2022-07-10T04:46:11;14.00;99.90
12957;DHT22;6543;48.836;10.092;2022-07-10T04:48:38;14.00;99.90
12957;DHT22;6543;48.836;10.092;2022-07-10T04:51:05;14.10;99.90
12957;DHT22;6543;48.836;10.092;2022-07-10T04:53:32;14.00;99.90
12957;DHT22;6543;48.836;10.092;2022-07-10T04:55:59;14.00;99.90
12957;DHT22;6543;48.836;10.092;2022-07-10T04:58:27;14.10;99.90
12957;DHT22;6543;48.836;10.092;2022-07-10T05:00:56;14.10;99.90
12957;DHT22;6543;48.836;10.092;2022-07-10T05:03:23;14.00;99.90
12957;DHT22;6543;48.836;10.092;2022-07-10T05:05:49;14.10;99.90
12957;DHT22;6543;48.836;10.092;2022-07-10T05:08:16;14.10;99.90
12957;DHT22;6543;48.836;10.092;2022-07-10T05:10:43;14.10;99.90
12957;DHT22;6543;48.836;10.092;2022-07-10T05:13:10;14.10;99.90
12957;DHT22;6543;48.836;10.092;2022-07-10T05:15:37;14.00;99.90
12957;DHT22;6543;48.836;10.092;2022-07-10T05:18:06;14.20;99.90
12957;DHT22;6543;48.836;10.092;2022-07-10T05:20:32;14.20;99.90
12957;DHT22;6543;48.836;10.092;2022-07-10T05:23:00;14.20;99.90
12957;DHT22;6543;48.836;10.092;2022-07-10T05:25:27;14.10;99.90
12957;DHT22;6543;48.836;10.092;2022-07-10T05:27:56;14.20;99.90
12957;DHT22;6543;48.836;10.092;2022-07-10T05:30:24;14.20;99.90
12957;DHT22;6543;48.836;10.092;2022-07-10T05:32:51;14.30;99.90
12957;DHT22;6543;48.836;10.092;2022-07-10T05:35:19;14.30;99.90
12957;DHT22;6543;48.836;10.092;2022-07-10T05:37:46;14.30;99.90
12957;DHT22;6543;48.836;10.092;2022-07-10T05:40:13;14.30;99.90
12957;DHT22;6543;48.836;10.092;2022-07-10T05:42:40;14.40;99.90
12957;DHT22;6543;48.836;10.092;2022-07-10T05:45:08;14.30;99.90
12957;DHT22;6543;48.836;10.092;2022-07-10T05:47:35;14.30;99.90
12957;DHT22;6543;48.836;10.092;2022-07-10T05:50:02;14.20;99.90
12957;DHT22;6543;48.836;10.092;2022-07-10T05:52:30;14.30;99.90
12957;DHT22;6543;48.836;10.092;2022-07-10T05:54:57;14.30;99.90
12957;DHT22;6543;48.836;10.092;2022-07-10T05:57:25;14.30;99.90
12957;DHT22;6543;48.836;10.092;2022-07-10T05:59:52;14.30;99.90
12957;DHT22;6543;48.836;10.092;2022-07-10T06:02:19;14.30;99.90
12957;DHT22;6543;48.836;10.092;2022-07-10T06:04:46;14.30;99.90
12957;DHT22;6543;48.836;10.092;2022-07-10T06:07:13;14.30;99.90
12957;DHT22;6543;48.836;10.092;2022-07-10T06:09:41;14.30;99.90
12957;DHT22;6543;48.836;10.092;2022-07-10T06:12:08;14.40;99.90
12957;DHT22;6543;48.836;10.092;2022-07-10T06:14:35;14.30;99.90
12957;DHT22;6543;48.836;10.092;2022-07-10T06:17:02;14.30;99.90
12957;DHT22;6543;48.836;10.092;2022-07-10T06:19:29;14.30;99.90
12957;DHT22;6543;48.836;10.092;2022-07-10T06:21:56;14.30;99.90
12957;DHT22;6543;48.836;10.092;2022-07-10T06:24:42;14.20;99.90
12957;DHT22;6543;48.836;10.092;2022-07-10T06:27:09;14.40;99.90
12957;DHT22;6543;48.836;10.092;2022-07-10T06:29:36;14.50;99.90
12957;DHT22;6543;48.836;10.092;2022-07-10T06:32:04;14.30;99.90
12957;DHT22;6543;48.836;10.092;2022-07-10T06:34:31;14.40;99.90
12957;DHT22;6543;48.836;10.092;2022-07-10T06:36:58;14.50;99.90
12957;DHT22;6543;48.836;10.092;2022-07-10T06:39:25;14.50;99.90
12957;DHT22;6543;48.836;10.092;2022-07-10T06:41:53;14.60;99.90
12957;DHT22;6543;48.836;10.092;2022-07-10T06:44:20;14.60;99.90
12957;DHT22;6543;48.836;10.092;2022-07-10T06:46:47;14.50;99.90
12957;DHT22;6543;48.836;10.092;2022-07-10T06:49:34;14.70;99.90
12957;DHT22;6543;48.836;10.092;2022-07-10T06:52:00;14.50;99.90
12957;DHT22;6543;48.836;10.092;2022-07-10T06:54:27;14.80;99.90
12957;DHT22;6543;48.836;10.092;2022-07-10T06:56:56;14.80;99.90
12957;DHT22;6543;48.836;10.092;2022-07-10T06:59:23;15.00;99.90
12957;DHT22;6543;48.836;10.092;2022-07-10T07:01:50;14.90;99.90
12957;DHT22;6543;48.836;10.092;2022-07-10T07:04:17;15.00;99.90
12957;DHT22;6543;48.836;10.092;2022-07-10T07:06:43;14.90;99.90
12957;DHT22;6543;48.836;10.092;2022-07-10T07:09:11;15.20;99.90
12957;DHT22;6543;48.836;10.092;2022-07-10T07:11:38;15.20;99.90
12957;DHT22;6543;48.836;10.092;2022-07-10T07:14:06;15.40;99.90
12957;DHT22;6543;48.836;10.092;2022-07-10T07:16:33;15.50;99.90
12957;DHT22;6543;48.836;10.092;2022-07-10T07:19:08;15.30;99.90
12957;DHT22;6543;48.836;10.092;2022-07-10T07:21:35;15.30;99.90
12957;DHT22;6543;48.836;10.092;2022-07-10T07:24:20;15.00;99.90
12957;DHT22;6543;48.836;10.092;2022-07-10T07:26:47;15.10;99.90
12957;DHT22;6543;48.836;10.092;2022-07-10T07:29:17;15.10;99.90
12957;DHT22;6543;48.836;10.092;2022-07-10T07:31:44;15.00;99.90
12957;DHT22;6543;48.836;10.092;2022-07-10T07:34:11;15.10;99.90
12957;DHT22;6543;48.836;10.092;2022-07-10T07:36:38;15.30;99.90
12957;DHT22;6543;48.836;10.092;2022-07-10T07:39:05;15.30;99.90
12957;DHT22;6543;48.836;10.092;2022-07-10T07:41:32;15.20;99.90
12957;DHT22;6543;48.836;10.092;2022-07-10T07:43:58;15.30;99.90
12957;DHT22;6543;48.836;10.092;2022-07-10T07:46:27;15.20;99.90
12957;DHT22;6543;48.836;10.092;2022-07-10T07:48:53;15.30;99.90
12957;DHT22;6543;48.836;10.092;2022-07-10T07:51:20;15.20;99.90
12957;DHT22;6543;48.836;10.092;2022-07-10T07:53:47;15.30;99.90
12957;DHT22;6543;48.836;10.092;2022-07-10T07:56:14;15.60;99.90
12957;DHT22;6543;48.836;10.092;2022-07-10T07:58:41;15.60;99.90
12957;DHT22;6543;48.836;10.092;2022-07-10T08:01:08;15.60;99.90
12957;DHT22;6543;48.836;10.092;2022-07-10T08:03:37;15.60;99.90
12957;DHT22;6543;48.836;10.092;2022-07-10T08:06:04;15.80;99.90
12957;DHT22;6543;48.836;10.092;2022-07-10T08:08:31;15.50;99.90
12957;DHT22;6543;48.836;10.092;2022-07-10T08:10:58;15.70;99.90
12957;DHT22;6543;48.836;10.092;2022-07-10T08:13:24;16.00;99.90
12957;DHT22;6543;48.836;10.092;2022-07-10T08:15:51;16.10;99.90
12957;DHT22;6543;48.836;10.092;2022-07-10T08:18:18;16.00;99.90
12957;DHT22;6543;48.836;10.092;2022-07-10T08:20:46;16.10;99.90
12957;DHT22;6543;48.836;10.092;2022-07-10T08:23:13;16.40;99.90
12957;DHT22;6543;48.836;10.092;2022-07-10T08:25:40;16.20;99.90
12957;DHT22;6543;48.836;10.092;2022-07-10T08:28:07;16.30;99.90
12957;DHT22;6543;48.836;10.092;2022-07-10T08:30:35;16.30;99.90
12957;DHT22;6543;48.836;10.092;2022-07-10T08:33:02;16.30;99.90
12957;DHT22;6543;48.836;10.092;2022-07-10T08:35:30;16.20;99.90
12957;DHT22;6543;48.836;10.092;2022-07-10T08:37:58;16.00;99.90
12957;DHT22;6543;48.836;10.092;2022-07-10T08:40:25;15.90;99.90
12957;DHT22;6543;48.836;10.092;2022-07-10T08:42:56;16.20;99.90
12957;DHT22;6543;48.836;10.092;2022-07-10T08:45:23;16.60;99.90
12957;DHT22;6543;48.836;10.092;2022-07-10T08:47:50;16.40;99.90
12957;DHT22;6543;48.836;10.092;2022-07-10T08:50:18;16.30;99.90
12957;DHT22;6543;48.836;10.092;2022-07-10T08:52:52;16.80;99.90
12957;DHT22;6543;48.836;10.092;2022-07-10T08:55:25;16.60;99.90
12957;DHT22;6543;48.836;10.092;2022-07-10T08:57:54;16.30;99.90
12957;DHT22;6543;48.836;10.092;2022-07-10T09:00:22;16.20;99.90
12957;DHT22;6543;48.836;10.092;2022-07-10T09:02:48;16.00;99.90
12957;DHT22;6543;48.836;10.092;2022-07-10T09:05:15;16.10;99.90
12957;DHT22;6543;48.836;10.092;2022-07-10T09:07:42;16.30;99.90
12957;DHT22;6543;48.836;10.092;2022-07-10T09:10:11;16.50;99.90
12957;DHT22;6543;48.836;10.092;2022-07-10T09:12:53;16.40;99.90
12957;DHT22;6543;48.836;10.092;2022-07-10T09:15:21;16.20;99.90
12957;DHT22;6543;48.836;10.092;2022-07-10T09:17:53;16.70;99.90
12957;DHT22;6543;48.836;10.092;2022-07-10T09:20:28;16.80;99.90
12957;DHT22;6543;48.836;10.092;2022-07-10T09:22:57;16.50;99.90
12957;DHT22;6543;48.836;10.092;2022-07-10T09:25:30;16.90;99.90
12957;DHT22;6543;48.836;10.092;2022-07-10T09:27:59;16.80;99.90
12957;DHT22;6543;48.836;10.092;2022-07-10T09:30:34;16.20;99.90
12957;DHT22;6543;48.836;10.092;2022-07-10T09:33:18;16.60;99.90
12957;DHT22;6543;48.836;10.092;2022-07-10T09:35:59;16.70;99.90
12957;DHT22;6543;48.836;10.092;2022-07-10T09:38:49;17.10;99.90
12957;DHT22;6543;48.836;10.092;2022-07-10T09:41:18;17.10;99.90
12957;DHT22;6543;48.836;10.092;2022-07-10T09:43:48;16.70;99.90
12957;DHT22;6543;48.836;10.092;2022-07-10T09:46:15;16.80;99.90
12957;DHT22;6543;48.836;10.092;2022-07-10T09:48:42;16.50;99.90
12957;DHT22;6543;48.836;10.092;2022-07-10T09:51:10;16.90;99.90
12957;DHT22;6543;48.836;10.092;2022-07-10T09:53:39;16.80;99.90
12957;DHT22;6543;48.836;10.092;2022-07-10T09:56:07;16.70;99.90
12957;DHT22;6543;48.836;10.092;2022-07-10T09:58:35;17.40;99.90
12957;DHT22;6543;48.836;10.092;2022-07-10T10:01:05;17.80;99.90
12957;DHT22;6543;48.836;10.092;2022-07-10T10:03:33;18.10;99.90
12957;DHT22;6543;48.836;10.092;2022-07-10T10:06:04;17.60;99.90
12957;DHT22;6543;48.836;10.092;2022-07-10T10:08:39;17.50;99.90
12957;DHT22;6543;48.836;10.092;2022-07-10T10:11:14;17.50;99.90
12957;DHT22;6543;48.836;10.092;2022-07-10T10:13:41;17.60;99.90
12957;DHT22;6543;48.836;10.092;2022-07-10T10:16:11;17.70;99.90
12957;DHT22;6543;48.836;10.092;2022-07-10T10:18:41;17.50;99.90
12957;DHT22;6543;48.836;10.092;2022-07-10T10:21:23;17.50;99.90
12957;DHT22;6543;48.836;10.092;2022-07-10T10:23:51;17.80;99.90
12957;DHT22;6543;48.836;10.092;2022-07-10T10:26:21;18.00;99.90
12957;DHT22;6543;48.836;10.092;2022-07-10T10:28:48;17.80;99.90
12957;DHT22;6543;48.836;10.092;2022-07-10T10:31:17;18.10;99.90
12957;DHT22;6543;48.836;10.092;2022-07-10T10:33:45;18.50;99.90
12957;DHT22;6543;48.836;10.092;2022-07-10T10:36:43;18.40;99.90
12957;DHT22;6543;48.836;10.092;2022-07-10T10:39:12;18.50;99.90
12957;DHT22;6543;48.836;10.092;2022-07-10T10:41:41;17.80;99.90
12957;DHT22;6543;48.836;10.092;2022-07-10T10:44:25;18.10;99.90
12957;DHT22;6543;48.836;10.092;2022-07-10T10:47:00;17.90;99.90
12957;DHT22;6543;48.836;10.092;2022-07-10T10:50:03;17.80;99.90
12957;DHT22;6543;48.836;10.092;2022-07-10T10:52:30;18.00;99.90
12957;DHT22;6543;48.836;10.092;2022-07-10T10:55:15;18.00;99.90
12957;DHT22;6543;48.836;10.092;2022-07-10T10:57:43;17.70;99.90
12957;DHT22;6543;48.836;10.092;2022-07-10T11:00:31;17.40;99.90
12957;DHT22;6543;48.836;10.092;2022-07-10T11:03:21;17.20;99.90
12957;DHT22;6543;48.836;10.092;2022-07-10T11:05:50;17.30;99.90
12957;DHT22;6543;48.836;10.092;2022-07-10T11:08:36;18.00;99.90
12957;DHT22;6543;48.836;10.092;2022-07-10T11:11:36;17.80;99.90
12957;DHT22;6543;48.836;10.092;2022-07-10T11:14:06;17.50;99.90
12957;DHT22;6543;48.836;10.092;2022-07-10T11:16:34;17.30;99.90
12957;DHT22;6543;48.836;10.092;2022-07-10T11:19:03;17.20;99.90
12957;DHT22;6543;48.836;10.092;2022-07-10T11:21:46;17.40;99.90
12957;DHT22;6543;48.836;10.092;2022-07-10T11:24:29;17.00;99.90
12957;DHT22;6543;48.836;10.092;2022-07-10T11:27:11;16.90;99.90
12957;DHT22;6543;48.836;10.092;2022-07-10T11:29:40;17.10;99.90
12957;DHT22;6543;48.836;10.092;2022-07-10T11:32:07;17.30;99.90
12957;DHT22;6543;48.836;10.092;2022-07-10T11:34:37;17.70;99.90
12957;DHT22;6543;48.836;10.092;2022-07-10T11:37:13;17.90;99.90
12957;DHT22;6543;48.836;10.092;2022-07-10T11:39:39;17.60;99.90
12957;DHT22;6543;48.836;10.092;2022-07-10T11:42:06;18.30;99.90
12957;DHT22;6543;48.836;10.092;2022-07-10T11:44:33;17.90;99.90
12957;DHT22;6543;48.836;10.092;2022-07-10T11:47:00;17.80;99.90
12957;DHT22;6543;48.836;10.092;2022-07-10T11:49:28;17.50;99.90
12957;DHT22;6543;48.836;10.092;2022-07-10T11:52:01;17.60;99.90
12957;DHT22;6543;48.836;10.092;2022-07-10T11:54:28;17.70;99.90
12957;DHT22;6543;48.836;10.092;2022-07-10T11:56:55;17.50;99.90
12957;DHT22;6543;48.836;10.092;2022-07-10T11:59:25;17.30;99.90
12957;DHT22;6543;48.836;10.092;2022-07-10T12:01:54;17.40;99.90
12957;DHT22;6543;48.836;10.092;2022-07-10T12:04:22;17.80;99.90
12957;DHT22;6543;48.836;10.092;2022-07-10T12:06:51;17.90;99.90
12957;DHT22;6543;48.836;10.092;2022-07-10T12:09:21;18.20;99.90
12957;DHT22;6543;48.836;10.092;2022-07-10T12:11:58;18.20;99.90
12957;DHT22;6543;48.836;10.092;2022-07-10T12:14:26;18.10;99.90
12957;DHT22;6543;48.836;10.092;2022-07-10T12:16:54;18.90;99.90
12957;DHT22;6543;48.836;10.092;2022-07-10T12:19:24;18.50;99.90
12957;DHT22;6543;48.836;10.092;2022-07-10T12:21:51;17.70;99.90
12957;DHT22;6543;48.836;10.092;2022-07-10T12:24:20;17.90;99.90
12957;DHT22;6543;48.836;10.092;2022-07-10T12:26:47;18.50;99.90
12957;DHT22;6543;48.836;10.092;2022-07-10T12:29:20;19.20;99.90
12957;DHT22;6543;48.836;10.092;2022-07-10T12:31:49;19.10;99.90
12957;DHT22;6543;48.836;10.092;2022-07-10T12:34:16;19.60;99.90
12957;DHT22;6543;48.836;10.092;2022-07-10T12:36:45;19.80;99.90
12957;DHT22;6543;48.836;10.092;2022-07-10T12:39:13;18.60;99.90
12957;DHT22;6543;48.836;10.092;2022-07-10T12:41:58;18.20;99.90
12957;DHT22;6543;48.836;10.092;2022-07-10T12:44:36;18.10;99.90
12957;DHT22;6543;48.836;10.092;2022-07-10T12:47:05;18.40;99.90
12957;DHT22;6543;48.836;10.092;2022-07-10T12:49:48;18.60;99.90
12957;DHT22;6543;48.836;10.092;2022-07-10T12:52:20;18.30;99.90
12957;DHT22;6543;48.836;10.092;2022-07-10T12:54:47;18.20;99.90
12957;DHT22;6543;48.836;10.092;2022-07-10T12:57:16;18.40;99.90
12957;DHT22;6543;48.836;10.092;2022-07-10T12:59:43;19.00;99.90
12957;DHT22;6543;48.836;10.092;2022-07-10T13:02:17;18.70;99.90
12957;DHT22;6543;48.836;10.092;2022-07-10T13:04:54;18.50;99.90
12957;DHT22;6543;48.836;10.092;2022-07-10T13:07:29;18.80;99.90
12957;DHT22;6543;48.836;10.092;2022-07-10T13:09:56;18.40;99.90
12957;DHT22;6543;48.836;10.092;2022-07-10T13:12:26;18.30;99.90
12957;DHT22;6543;48.836;10.092;2022-07-10T13:14:53;18.40;99.90
12957;DHT22;6543;48.836;10.092;2022-07-10T13:17:20;18.60;99.90
12957;DHT22;6543;48.836;10.092;2022-07-10T13:19:47;18.60;99.90
12957;DHT22;6543;48.836;10.092;2022-07-10T13:22:13;18.40;99.90
12957;DHT22;6543;48.836;10.092;2022-07-10T13:24:40;18.70;99.90
12957;DHT22;6543;48.836;10.092;2022-07-10T13:27:08;19.00;99.90
12957;DHT22;6543;48.836;10.092;2022-07-10T13:29:36;19.50;99.90
12957;DHT22;6543;48.836;10.092;2022-07-10T13:32:03;19.60;99.90
12957;DHT22;6543;48.836;10.092;2022-07-10T13:34:30;19.00;99.90
12957;DHT22;6543;48.836;10.092;2022-07-10T13:36:57;18.50;99.90
12957;DHT22;6543;48.836;10.092;2022-07-10T13:39:24;18.40;99.90
12957;DHT22;6543;48.836;10.092;2022-07-10T13:41:51;18.60;99.90
12957;DHT22;6543;48.836;10.092;2022-07-10T13:44:18;18.70;99.90
12957;DHT22;6543;48.836;10.092;2022-07-10T13:46:47;18.70;99.90
12957;DHT22;6543;48.836;10.092;2022-07-10T13:49:14;18.50;99.90
12957;DHT22;6543;48.836;10.092;2022-07-10T13:51:41;18.60;99.90
12957;DHT22;6543;48.836;10.092;2022-07-10T13:54:07;18.70;99.90
12957;DHT22;6543;48.836;10.092;2022-07-10T13:56:34;19.00;99.90
12957;DHT22;6543;48.836;10.092;2022-07-10T13:59:01;18.50;99.90
12957;DHT22;6543;48.836;10.092;2022-07-10T14:01:28;18.70;99.90
12957;DHT22;6543;48.836;10.092;2022-07-10T14:03:57;19.00;99.90
12957;DHT22;6543;48.836;10.092;2022-07-10T14:06:24;19.60;99.90
12957;DHT22;6543;48.836;10.092;2022-07-10T14:08:51;18.60;99.90
12957;DHT22;6543;48.836;10.092;2022-07-10T14:11:18;18.60;99.90
12957;DHT22;6543;48.836;10.092;2022-07-10T14:13:45;18.60;99.90
12957;DHT22;6543;48.836;10.092;2022-07-10T14:16:12;18.50;99.90
12957;DHT22;6543;48.836;10.092;2022-07-10T14:18:38;18.10;99.90
12957;DHT22;6543;48.836;10.092;2022-07-10T14:21:08;18.10;99.90
12957;DHT22;6543;48.836;10.092;2022-07-10T14:23:39;18.60;99.90
12957;DHT22;6543;48.836;10.092;2022-07-10T14:26:07;18.90;99.90
12957;DHT22;6543;48.836;10.092;2022-07-10T14:28:34;18.80;99.90
12957;DHT22;6543;48.836;10.092;2022-07-10T14:31:01;18.80;99.90
12957;DHT22;6543;48.836;10.092;2022-07-10T14:33:29;19.70;99.90
12957;DHT22;6543;48.836;10.092;2022-07-10T14:35:56;19.90;99.90
12957;DHT22;6543;48.836;10.092;2022-07-10T14:38:25;20.00;99.90
12957;DHT22;6543;48.836;10.092;2022-07-10T14:40:53;20.00;99.90
12957;DHT22;6543;48.836;10.092;2022-07-10T14:43:20;20.30;99.90
12957;DHT22;6543;48.836;10.092;2022-07-10T14:45:48;20.20;99.90
12957;DHT22;6543;48.836;10.092;2022-07-10T14:48:15;20.50;99.70
12957;DHT22;6543;48.836;10.092;2022-07-10T14:50:42;20.30;99.90
12957;DHT22;6543;48.836;10.092;2022-07-10T14:53:09;19.90;99.90
12957;DHT22;6543;48.836;10.092;2022-07-10T14:55:38;20.70;99.90
12957;DHT22;6543;48.836;10.092;2022-07-10T14:58:05;20.80;99.70
12957;DHT22;6543;48.836;10.092;2022-07-10T15:00:32;21.40;99.40
12957;DHT22;6543;48.836;10.092;2022-07-10T15:02:59;21.40;98.70
12957;DHT22;6543;48.836;10.092;2022-07-10T15:05:26;21.10;99.60
12957;DHT22;6543;48.836;10.092;2022-07-10T15:07:53;21.30;98.40
12957;DHT22;6543;48.836;10.092;2022-07-10T15:10:20;20.90;99.10
12957;DHT22;6543;48.836;10.092;2022-07-10T15:12:48;20.00;99.60
12957;DHT22;6543;48.836;10.092;2022-07-10T15:15:15;19.80;99.50
12957;DHT22;6543;48.836;10.092;2022-07-10T15:17:42;20.60;98.40
12957;DHT22;6543;48.836;10.092;2022-07-10T15:20:11;20.70;97.80
12957;DHT22;6543;48.836;10.092;2022-07-10T15:22:39;20.30;98.70
12957;DHT22;6543;48.836;10.092;2022-07-10T15:25:06;20.60;99.30
12957;DHT22;6543;48.836;10.092;2022-07-10T15:27:33;21.30;97.80
12957;DHT22;6543;48.836;10.092;2022-07-10T15:30:02;22.20;96.90
12957;DHT22;6543;48.836;10.092;2022-07-10T15:32:29;22.80;95.20
12957;DHT22;6543;48.836;10.092;2022-07-10T15:34:56;21.90;97.30
12957;DHT22;6543;48.836;10.092;2022-07-10T15:37:25;22.10;96.90
12957;DHT22;6543;48.836;10.092;2022-07-10T15:39:52;21.80;96.50